createdAt,value
2023-05-14T00:06:02.961Z,100023.09
2023-05-14T00:16:05.951Z,100004.22
2023-05-14T00:26:08.493Z,99991.97
2023-05-14T00:36:10.998Z,99988.25
2023-05-14T00:46:14.559Z,99971.09
2023-05-14T00:56:18.153Z,99979.41
2023-05-14T01:06:47.128Z,99974.78
2023-05-14T01:16:56.738Z,99956.38
2023-05-14T01:27:26.659Z,99970.09
2023-05-14T01:37:30.677Z,99967.50
2023-05-14T01:47:33.326Z,99971.25
2023-05-14T01:57:36.470Z,99940.94
2023-05-14T02:07:39.476Z,99945.06
2023-05-14T02:17:42.014Z,99935.72
2023-05-14T02:27:46.662Z,99923.25
2023-05-14T02:37:49.152Z,99921.47
2023-05-14T02:47:51.630Z,99912.50
2023-05-14T02:57:54.350Z,99902.44
2023-05-14T03:07:56.801Z,99888.00
2023-05-14T03:17:59.284Z,99883.56
2023-05-14T03:28:01.861Z,99875.94
2023-05-14T03:38:04.399Z,99872.25
2023-05-14T03:48:07.087Z,99870.41
2023-05-14T03:58:14.434Z,99856.22
2023-05-14T04:08:17.323Z,99864.84
2023-05-14T04:18:19.783Z,99850.53
2023-05-14T04:28:22.310Z,99860.50
2023-05-14T04:38:24.769Z,99856.78
2023-05-14T04:48:27.253Z,99852.16
2023-05-14T04:58:33.756Z,99846.63
2023-05-14T05:08:37.571Z,99848.16
2023-05-14T05:18:40.245Z,99832.25
2023-05-14T05:28:42.857Z,99825.25
2023-05-14T05:38:45.354Z,99806.06
2023-05-14T05:48:47.818Z,99805.66
2023-05-14T05:58:50.324Z,99812.16
2023-05-14T06:08:52.776Z,99808.41
2023-05-14T06:18:56.005Z,99807.38
2023-05-14T06:28:59.236Z,99797.81
2023-05-14T06:39:01.699Z,99794.13
2023-05-14T06:49:04.379Z,99772.25
2023-05-14T06:59:06.896Z,99763.66
2023-05-14T07:09:10.702Z,99741.97
2023-05-14T07:19:13.546Z,99749.59
2023-05-14T07:29:16.123Z,99723.66
2023-05-14T07:39:18.766Z,99712.19
2023-05-14T07:49:21.295Z,99706.91
2023-05-14T07:59:23.760Z,99704.66
2023-05-14T08:09:26.429Z,99704.59
2023-05-14T08:19:28.953Z,99713.06
2023-05-14T08:29:31.527Z,99691.50
2023-05-14T08:39:34.058Z,99682.53
2023-05-14T08:49:42.753Z,99691.84
2023-05-14T08:59:45.277Z,99655.31
2023-05-14T09:09:48.086Z,99662.31
2023-05-14T09:19:53.185Z,99655.06
2023-05-14T09:29:56.335Z,99640.34
2023-05-14T09:40:06.410Z,99620.59
2023-05-14T09:50:10.026Z,99606.50
2023-05-14T10:00:13.055Z,99603.38
2023-05-14T10:10:19.265Z,99607.47
2023-05-14T10:20:23.491Z,99603.19
2023-05-14T10:30:27.214Z,99591.09
2023-05-14T10:40:29.941Z,99586.91
2023-05-14T10:50:32.421Z,99580.47
2023-05-14T11:00:35.631Z,99575.06
2023-05-14T11:10:39.468Z,99567.56
2023-05-14T11:20:42.025Z,99540.97
2023-05-14T11:30:46.474Z,99523.34
2023-05-14T11:40:59.670Z,99476.97
2023-05-14T11:51:02.222Z,99491.34
2023-05-14T12:01:04.935Z,99503.19
2023-05-14T12:11:09.215Z,99492.88
2023-05-14T12:21:12.147Z,99491.16
2023-05-14T12:31:15.589Z,99490.78
2023-05-14T12:41:18.321Z,99475.41
2023-05-14T12:51:21.146Z,99469.28
2023-05-14T13:01:24.377Z,99453.00
2023-05-14T13:11:29.659Z,99448.06
2023-05-14T13:21:32.264Z,99443.44
2023-05-14T13:31:35.013Z,99430.06
2023-05-14T13:41:38.393Z,99401.84
2023-05-14T13:51:41.026Z,99389.59
2023-05-14T14:01:43.606Z,99383.63
2023-05-14T14:11:46.153Z,99386.47
2023-05-14T14:31:51.382Z,99377.66
2023-05-14T14:41:53.954Z,99370.16
2023-05-14T14:51:56.477Z,99343.72
2023-05-14T15:01:59.036Z,99356.69
2023-05-14T15:12:01.618Z,99333.94
2023-05-14T15:22:04.565Z,99335.19
2023-05-14T15:32:07.755Z,99320.34
2023-05-14T15:42:10.537Z,99321.44
2023-05-14T15:52:13.902Z,99315.00
2023-05-14T16:02:16.356Z,99311.94
2023-05-14T16:12:18.833Z,99296.97
2023-05-14T16:22:21.416Z,99293.38
2023-05-14T16:32:25.323Z,99296.03
2023-05-14T16:42:27.925Z,99299.19
2023-05-14T16:52:30.964Z,99272.97
2023-05-14T17:02:33.826Z,99274.19
2023-05-14T17:12:36.254Z,99289.34
2023-05-14T17:22:39.027Z,99268.59
2023-05-14T17:32:41.515Z,99262.03
2023-05-14T17:42:45.524Z,99254.56
2023-05-14T17:52:48.500Z,99257.00
2023-05-14T18:02:51.126Z,99246.38
2023-05-14T18:12:53.782Z,99227.50
2023-05-14T18:22:56.515Z,99228.44
2023-05-14T18:32:59.987Z,99238.94
2023-05-14T18:43:03.031Z,99255.59
2023-05-14T18:53:05.767Z,99246.06
2023-05-14T19:03:08.305Z,99234.47
2023-05-14T19:13:11.703Z,99236.41
2023-05-14T19:23:14.229Z,99241.34
2023-05-14T19:33:17.496Z,99237.09
2023-05-14T19:43:20.030Z,99220.13
2023-05-14T19:53:24.098Z,99208.00
2023-05-14T20:03:26.978Z,99254.63
2023-05-14T20:13:32.051Z,99244.41
2023-05-14T20:23:34.754Z,99253.44
2023-05-14T20:33:37.230Z,99226.94
2023-05-14T20:43:39.764Z,99179.78
2023-05-14T20:53:42.280Z,99139.09
2023-05-14T21:03:44.843Z,99158.78
2023-05-14T21:13:47.455Z,99133.75
2023-05-14T21:23:50.132Z,99141.50
2023-05-14T21:33:52.566Z,99172.78
2023-05-14T21:43:55.091Z,99165.03
2023-05-14T21:53:57.646Z,99131.09
2023-05-14T22:04:00.106Z,99153.63
2023-05-14T22:14:02.641Z,99117.34
2023-05-14T22:24:05.503Z,99093.63
2023-05-14T22:34:08.006Z,99104.88
2023-05-14T22:44:10.459Z,99074.09
2023-05-14T22:54:12.946Z,99096.16
2023-05-14T23:04:15.507Z,99114.00
2023-05-14T23:14:18.454Z,99141.75
2023-05-14T23:24:20.919Z,99113.06
2023-05-14T23:34:23.504Z,99121.19
2023-05-14T23:44:25.991Z,99109.59
2023-05-14T23:54:28.504Z,99116.59
